Aviation Digital Data Service (ADDS)

Output produced by METARs form (0341 UTC 21 September 2018)
found at http://www.aviationweather.gov/metar/data/
 
METAR text: KUCP 210256Z AUTO VRB03KT 10SM CLR 24/20 A3007 RMK AO2 SLP191 T02390200 58005
Conditions at: KUCP (NEW CASTLE MUNI , PA, US) observed 0256 UTC 21 September 2018
Temperature: 23.9°C (75°F)
Dewpoint: 20.0°C (68°F) [RH = 79%]
Pressure (altimeter): 30.07 inches Hg (1018.4 mb)
[Sea-level pressure: 1019.1 mb]
Winds: variable direction winds at 3 MPH (3 knots; 1.5 m/s)
Visibility: 10 or more miles (16+ km)
Ceiling: at least 12,000 feet AGL
Clouds: sky clear below 12,000 feet AGL
Weather: automated observation with no human augmentation;
there may or may not be significant weather present at this time

METAR text: KUCP 210156Z AUTO 13004KT 10SM CLR 24/21 A3008 RMK AO2 SLP194 T02390206
Conditions at: KUCP (NEW CASTLE MUNI , PA, US) observed 0156 UTC 21 September 2018
Temperature: 23.9°C (75°F)
Dewpoint: 20.6°C (69°F) [RH = 82%]
Pressure (altimeter): 30.08 inches Hg (1018.7 mb)
[Sea-level pressure: 1019.4 mb]
Winds: from the SE (130 degrees) at 5 MPH (4 knots; 2.1 m/s)
Visibility: 10 or more miles (16+ km)
Ceiling: at least 12,000 feet AGL
Clouds: sky clear below 12,000 feet AGL
Weather: automated observation with no human augmentation;
there may or may not be significant weather present at this time

METAR text: KUCP 210056Z AUTO 14003KT 10SM CLR 23/21 A3009 RMK AO2 SLP199 T02330206
Conditions at: KUCP (NEW CASTLE MUNI , PA, US) observed 0056 UTC 21 September 2018
Temperature: 23.3°C (74°F)
Dewpoint: 20.6°C (69°F) [RH = 85%]
Pressure (altimeter): 30.09 inches Hg (1019.0 mb)
[Sea-level pressure: 1019.9 mb]
Winds: from the SE (140 degrees) at 3 MPH (3 knots; 1.5 m/s)
Visibility: 10 or more miles (16+ km)
Ceiling: at least 12,000 feet AGL
Clouds: sky clear below 12,000 feet AGL
Weather: automated observation with no human augmentation;
there may or may not be significant weather present at this time

METAR text: KUCP 202356Z AUTO 13003KT 10SM CLR 24/21 A3009 RMK AO2 SLP200 T02440206 10289 20244 55000
Conditions at: KUCP (NEW CASTLE MUNI , PA, US) observed 2356 UTC 20 September 2018
Temperature: 24.4°C (76°F)
Dewpoint: 20.6°C (69°F) [RH = 79%]
Pressure (altimeter): 30.09 inches Hg (1019.0 mb)
[Sea-level pressure: 1020.0 mb]
Winds: from the SE (130 degrees) at 3 MPH (3 knots; 1.5 m/s)
Visibility: 10 or more miles (16+ km)
Ceiling: at least 12,000 feet AGL
Clouds: sky clear below 12,000 feet AGL
Weather: automated observation with no human augmentation;
there may or may not be significant weather present at this time

METAR text: KUCP 202256Z AUTO 11003KT 10SM CLR 27/22 A3008 RMK AO2 SLP194 T02670217
Conditions at: KUCP (NEW CASTLE MUNI , PA, US) observed 2256 UTC 20 September 2018
Temperature: 26.7°C (80°F)
Dewpoint: 21.7°C (71°F) [RH = 74%]
Pressure (altimeter): 30.08 inches Hg (1018.7 mb)
[Sea-level pressure: 1019.4 mb]
Winds: from the ESE (110 degrees) at 3 MPH (3 knots; 1.5 m/s)
Visibility: 10 or more miles (16+ km)
Ceiling: at least 12,000 feet AGL
Clouds: sky clear below 12,000 feet AGL
Weather: automated observation with no human augmentation;
there may or may not be significant weather present at this time

METAR text: KUCP 202156Z AUTO 09005KT 10SM SCT045 SCT070 27/22 A3008 RMK AO2 SLP195 T02720217
Conditions at: KUCP (NEW CASTLE MUNI , PA, US) observed 2156 UTC 20 September 2018
Temperature: 27.2°C (81°F)
Dewpoint: 21.7°C (71°F) [RH = 72%]
Pressure (altimeter): 30.08 inches Hg (1018.7 mb)
[Sea-level pressure: 1019.5 mb]
Winds: from the E (90 degrees) at 6 MPH (5 knots; 2.6 m/s)
Visibility: 10 or more miles (16+ km)
Ceiling: at least 12,000 feet AGL
Clouds: scattered clouds at 4500 feet AGL
scattered clouds at 7000 feet AGL
Weather: automated observation with no human augmentation;
there may or may not be significant weather present at this time

METAR text: KUCP 202056Z AUTO 10004KT 10SM CLR 28/22 A3009 RMK AO2 SLP198 T02780217 56012
Conditions at: KUCP (NEW CASTLE MUNI , PA, US) observed 2056 UTC 20 September 2018
Temperature: 27.8°C (82°F)
Dewpoint: 21.7°C (71°F) [RH = 69%]
Pressure (altimeter): 30.09 inches Hg (1019.0 mb)
[Sea-level pressure: 1019.8 mb]
Winds: from the E (100 degrees) at 5 MPH (4 knots; 2.1 m/s)
Visibility: 10 or more miles (16+ km)
Ceiling: at least 12,000 feet AGL
Clouds: sky clear below 12,000 feet AGL
Weather: automated observation with no human augmentation;
there may or may not be significant weather present at this time

METAR text: KUCP 201956Z AUTO 10004KT 10SM FEW039 SCT050 SCT060 27/21 A3010 RMK AO2 SLP201 T02720211
Conditions at: KUCP (NEW CASTLE MUNI , PA, US) observed 1956 UTC 20 September 2018
Temperature: 27.2°C (81°F)
Dewpoint: 21.1°C (70°F) [RH = 69%]
Pressure (altimeter): 30.10 inches Hg (1019.4 mb)
[Sea-level pressure: 1020.1 mb]
Winds: from the E (100 degrees) at 5 MPH (4 knots; 2.1 m/s)
Visibility: 10 or more miles (16+ km)
Ceiling: at least 12,000 feet AGL
Clouds: few clouds at 3900 feet AGL
scattered clouds at 5000 feet AGL
scattered clouds at 6000 feet AGL
Weather: automated observation with no human augmentation;
there may or may not be significant weather present at this time

METAR text: KUCP 201856Z AUTO VRB04KT 10SM BKN037 29/21 A3011 RMK AO2 SLP203 T02890211
Conditions at: KUCP (NEW CASTLE MUNI , PA, US) observed 1856 UTC 20 September 2018
Temperature: 28.9°C (84°F)
Dewpoint: 21.1°C (70°F) [RH = 63%]
Pressure (altimeter): 30.11 inches Hg (1019.7 mb)
[Sea-level pressure: 1020.3 mb]
Winds: variable direction winds at 5 MPH (4 knots; 2.1 m/s)
Visibility: 10 or more miles (16+ km)
Ceiling: 3700 feet AGL
Clouds: broken clouds at 3700 feet AGL
Weather: automated observation with no human augmentation;
there may or may not be significant weather present at this time

METAR text: KUCP 201756Z AUTO VRB03KT 10SM BKN034 BKN046 27/20 A3013 RMK AO2 SLP211 T02720200 10283 20133 58014
Conditions at: KUCP (NEW CASTLE MUNI , PA, US) observed 1756 UTC 20 September 2018
Temperature: 27.2°C (81°F)
Dewpoint: 20.0°C (68°F) [RH = 65%]
Pressure (altimeter): 30.13 inches Hg (1020.4 mb)
[Sea-level pressure: 1021.1 mb]
Winds: variable direction winds at 3 MPH (3 knots; 1.5 m/s)
Visibility: 10 or more miles (16+ km)
Ceiling: 3400 feet AGL
Clouds: broken clouds at 3400 feet AGL
broken clouds at 4600 feet AGL
Weather: automated observation with no human augmentation;
there may or may not be significant weather present at this time

METAR text: KUCP 201656Z AUTO 00000KT 10SM FEW031 27/19 A3015 RMK AO2 SLP217 T02670194
Conditions at: KUCP (NEW CASTLE MUNI , PA, US) observed 1656 UTC 20 September 2018
Temperature: 26.7°C (80°F)
Dewpoint: 19.4°C (67°F) [RH = 64%]
Pressure (altimeter): 30.15 inches Hg (1021.1 mb)
[Sea-level pressure: 1021.7 mb]
Winds: calm
Visibility: 10 or more miles (16+ km)
Ceiling: at least 12,000 feet AGL
Clouds: few clouds at 3100 feet AGL
Weather: automated observation with no human augmentation;
there may or may not be significant weather present at this time

METAR text: KUCP 201556Z AUTO VRB05KT 10SM CLR 25/19 A3016 RMK AO2 SLP223 T02500189
Conditions at: KUCP (NEW CASTLE MUNI , PA, US) observed 1556 UTC 20 September 2018
Temperature: 25.0°C (77°F)
Dewpoint: 18.9°C (66°F) [RH = 69%]
Pressure (altimeter): 30.16 inches Hg (1021.4 mb)
[Sea-level pressure: 1022.3 mb]
Winds: variable direction winds at 6 MPH (5 knots; 2.6 m/s)
Visibility: 10 or more miles (16+ km)
Ceiling: at least 12,000 feet AGL
Clouds: sky clear below 12,000 feet AGL
Weather: automated observation with no human augmentation;
there may or may not be significant weather present at this time

METAR text: KUCP 201456Z AUTO 00000KT 10SM CLR 23/18 A3017 RMK AO2 SLP226 T02280178 50006
Conditions at: KUCP (NEW CASTLE MUNI , PA, US) observed 1456 UTC 20 September 2018
Temperature: 22.8°C (73°F)
Dewpoint: 17.8°C (64°F) [RH = 73%]
Pressure (altimeter): 30.17 inches Hg (1021.8 mb)
[Sea-level pressure: 1022.6 mb]
Winds: calm
Visibility: 10 or more miles (16+ km)
Ceiling: at least 12,000 feet AGL
Clouds: sky clear below 12,000 feet AGL
Weather: automated observation with no human augmentation;
there may or may not be significant weather present at this time

METAR text: KUCP 201356Z AUTO 00000KT 9SM FEW002 17/17 A3017 RMK AO2 SLP228 T01720167
Conditions at: KUCP (NEW CASTLE MUNI , PA, US) observed 1356 UTC 20 September 2018
Temperature: 17.2°C (63°F)
Dewpoint: 16.7°C (62°F) [RH = 97%]
Pressure (altimeter): 30.17 inches Hg (1021.8 mb)
[Sea-level pressure: 1022.8 mb]
Winds: calm
Visibility: 9 miles (14 km)
Ceiling: at least 12,000 feet AGL
Clouds: few clouds at 200 feet AGL
Weather: automated observation with no human augmentation;
there may or may not be significant weather present at this time

METAR text: KUCP 201334Z AUTO 00000KT 5SM BR SCT002 17/16 A3016 RMK AO2
Conditions at: KUCP (NEW CASTLE MUNI , PA, US) observed 1334 UTC 20 September 2018
Temperature: 17.0°C (63°F)
Dewpoint: 16.0°C (61°F) [RH = 94%]
Pressure (altimeter): 30.16 inches Hg (1021.4 mb)
Winds: calm
Visibility: 5 miles ( 8 km)
Ceiling: at least 12,000 feet AGL
Clouds: scattered clouds at 200 feet AGL
Weather: BR  (mist)

METAR text: KUCP 201320Z AUTO 00000KT 2SM BR SCT002 16/16 A3016 RMK AO2 VIS 1V4
Conditions at: KUCP (NEW CASTLE MUNI , PA, US) observed 1320 UTC 20 September 2018
Temperature: 16.0°C (61°F)
Dewpoint: 16.0°C (61°F) [RH = 100%]
Pressure (altimeter): 30.16 inches Hg (1021.4 mb)
Winds: calm
Visibility: 2.00 miles (3.22 km)
Ceiling: at least 12,000 feet AGL
Clouds: scattered clouds at 200 feet AGL
Weather: BR  (mist)

METAR text: KUCP 201310Z AUTO 00000KT 1SM BR VV002 16/16 A3016 RMK AO2 RVRNO
Conditions at: KUCP (NEW CASTLE MUNI , PA, US) observed 1310 UTC 20 September 2018
Temperature: 16.0°C (61°F)
Dewpoint: 16.0°C (61°F) [RH = 100%]
Pressure (altimeter): 30.16 inches Hg (1021.4 mb)
Winds: calm
Visibility: 1.00 miles (1.61 km)
Ceiling: indefinite ceiling with vertical visibility of 200 feet AGL
Clouds: obscured sky
Weather: BR  (mist)

METAR text: KUCP 201307Z AUTO 00000KT 2 1/2SM BR SCT002 16/16 A3016 RMK AO2
Conditions at: KUCP (NEW CASTLE MUNI , PA, US) observed 1307 UTC 20 September 2018
Temperature: 16.0°C (61°F)
Dewpoint: 16.0°C (61°F) [RH = 100%]
Pressure (altimeter): 30.16 inches Hg (1021.4 mb)
Winds: calm
Visibility: 2.50 miles (4.02 km)
Ceiling: at least 12,000 feet AGL
Clouds: scattered clouds at 200 feet AGL
Weather: BR  (mist)

METAR text: KUCP 201256Z AUTO 00000KT 6SM BR BKN002 16/16 A3015 RMK AO2 SLP223 T01610156
Conditions at: KUCP (NEW CASTLE MUNI , PA, US) observed 1256 UTC 20 September 2018
Temperature: 16.1°C (61°F)
Dewpoint: 15.6°C (60°F) [RH = 97%]
Pressure (altimeter): 30.15 inches Hg (1021.1 mb)
[Sea-level pressure: 1022.3 mb]
Winds: calm
Visibility: 6 miles (10 km)
Ceiling: 200 feet AGL
Clouds: broken clouds at 200 feet AGL
Weather: BR  (mist)

METAR text: KUCP 201252Z AUTO 00000KT 3SM BR BKN002 16/15 A3016 RMK AO2
Conditions at: KUCP (NEW CASTLE MUNI , PA, US) observed 1252 UTC 20 September 2018
Temperature: 16.0°C (61°F)
Dewpoint: 15.0°C (59°F) [RH = 94%]
Pressure (altimeter): 30.16 inches Hg (1021.4 mb)
Winds: calm
Visibility: 3 miles ( 5 km)
Ceiling: 200 feet AGL
Clouds: broken clouds at 200 feet AGL
Weather: BR  (mist)

METAR text: KUCP 201245Z AUTO 00000KT 1 1/4SM BR OVC002 15/15 A3016 RMK AO2
Conditions at: KUCP (NEW CASTLE MUNI , PA, US) observed 1245 UTC 20 September 2018
Temperature: 15.0°C (59°F)
Dewpoint: 15.0°C (59°F) [RH = 100%]
Pressure (altimeter): 30.16 inches Hg (1021.4 mb)
Winds: calm
Visibility: 1.25 miles (2.01 km)
Ceiling: 200 feet AGL
Clouds: overcast cloud deck at 200 feet AGL
Weather: BR  (mist)

METAR text: KUCP 201238Z AUTO 00000KT 3/4SM BR OVC002 15/14 A3016 RMK AO2 RVRNO
Conditions at: KUCP (NEW CASTLE MUNI , PA, US) observed 1238 UTC 20 September 2018
Temperature: 15.0°C (59°F)
Dewpoint: 14.0°C (57°F) [RH = 94%]
Pressure (altimeter): 30.16 inches Hg (1021.4 mb)
Winds: calm
Visibility: 0.75 miles (1.21 km)
Ceiling: 200 feet AGL
Clouds: overcast cloud deck at 200 feet AGL
Weather: BR  (mist)

METAR text: KUCP 201209Z AUTO 00000KT 1/4SM FG OVC002 14/14 A3015 RMK AO2 RVRNO
Conditions at: KUCP (NEW CASTLE MUNI , PA, US) observed 1209 UTC 20 September 2018
Temperature: 14.0°C (57°F)
Dewpoint: 14.0°C (57°F) [RH = 100%]
Pressure (altimeter): 30.15 inches Hg (1021.1 mb)
Winds: calm
Visibility: 0.25 miles (0.40 km)
Ceiling: 200 feet AGL
Clouds: overcast cloud deck at 200 feet AGL
Weather: FG  (fog)

METAR text: KUCP 201156Z AUTO 00000KT 1/2SM FG OVC002 13/13 A3015 RMK AO2 SLP222 T01330133 10139 20122 53009 RVRNO
Conditions at: KUCP (NEW CASTLE MUNI , PA, US) observed 1156 UTC 20 September 2018
Temperature: 13.3°C (56°F)
Dewpoint: 13.3°C (56°F) [RH = 100%]
Pressure (altimeter): 30.15 inches Hg (1021.1 mb)
[Sea-level pressure: 1022.2 mb]
Winds: calm
Visibility: 0.50 miles (0.80 km)
Ceiling: 200 feet AGL
Clouds: overcast cloud deck at 200 feet AGL
Weather: FG  (fog)

METAR text: KUCP 201114Z AUTO 00000KT M1/4SM FG BKN002 13/13 A3013 RMK AO2 RVRNO
Conditions at: KUCP (NEW CASTLE MUNI , PA, US) observed 1114 UTC 20 September 2018
Temperature: 13.0°C (55°F)
Dewpoint: 13.0°C (55°F) [RH = 100%]
Pressure (altimeter): 30.13 inches Hg (1020.4 mb)
Winds: calm
Visibility: 0.25 miles (0.40 km)
Ceiling: 200 feet AGL
Clouds: broken clouds at 200 feet AGL
Weather: FG  (fog)

METAR text: KUCP 201101Z AUTO 00000KT 1/2SM FG VV002 13/12 A3013 RMK AO2 RVRNO
Conditions at: KUCP (NEW CASTLE MUNI , PA, US) observed 1101 UTC 20 September 2018
Temperature: 13.0°C (55°F)
Dewpoint: 12.0°C (54°F) [RH = 94%]
Pressure (altimeter): 30.13 inches Hg (1020.4 mb)
Winds: calm
Visibility: 0.50 miles (0.80 km)
Ceiling: indefinite ceiling with vertical visibility of 200 feet AGL
Clouds: obscured sky
Weather: FG  (fog)

METAR text: KUCP 201059Z AUTO 00000KT 1 1/2SM BR SCT003 13/12 A3013 RMK AO2 VIS 1/2V5
Conditions at: KUCP (NEW CASTLE MUNI , PA, US) observed 1059 UTC 20 September 2018
Temperature: 13.0°C (55°F)
Dewpoint: 12.0°C (54°F) [RH = 94%]
Pressure (altimeter): 30.13 inches Hg (1020.4 mb)
Winds: calm
Visibility: 1.50 miles (2.41 km)
Ceiling: at least 12,000 feet AGL
Clouds: scattered clouds at 300 feet AGL
Weather: BR  (mist)

METAR text: KUCP 201056Z AUTO 22003KT 5SM BR SCT003 13/12 A3013 RMK AO2 SLP213 T01280122
Conditions at: KUCP (NEW CASTLE MUNI , PA, US) observed 1056 UTC 20 September 2018
Temperature: 12.8°C (55°F)
Dewpoint: 12.2°C (54°F) [RH = 96%]
Pressure (altimeter): 30.13 inches Hg (1020.4 mb)
[Sea-level pressure: 1021.3 mb]
Winds: from the SW (220 degrees) at 3 MPH (3 knots; 1.5 m/s)
Visibility: 5 miles ( 8 km)
Ceiling: at least 12,000 feet AGL
Clouds: scattered clouds at 300 feet AGL
Weather: BR  (mist)

METAR text: KUCP 201048Z AUTO 00000KT 6SM BR SCT003 12/12 A3012 RMK AO2
Conditions at: KUCP (NEW CASTLE MUNI , PA, US) observed 1048 UTC 20 September 2018
Temperature: 12.0°C (54°F)
Dewpoint: 12.0°C (54°F) [RH = 100%]
Pressure (altimeter): 30.12 inches Hg (1020.1 mb)
Winds: calm
Visibility: 6 miles (10 km)
Ceiling: at least 12,000 feet AGL
Clouds: scattered clouds at 300 feet AGL
Weather: BR  (mist)

METAR text: KUCP 201043Z AUTO 00000KT 2SM BR BKN003 13/12 A3012 RMK AO2 VIS 3/4V5
Conditions at: KUCP (NEW CASTLE MUNI , PA, US) observed 1043 UTC 20 September 2018
Temperature: 13.0°C (55°F)
Dewpoint: 12.0°C (54°F) [RH = 94%]
Pressure (altimeter): 30.12 inches Hg (1020.1 mb)
Winds: calm
Visibility: 2.00 miles (3.22 km)
Ceiling: 300 feet AGL
Clouds: broken clouds at 300 feet AGL
Weather: BR  (mist)

METAR text: KUCP 201038Z AUTO 00000KT 1SM BR OVC003 13/12 A3012 RMK AO2 VIS 3/4V4 RVRNO
Conditions at: KUCP (NEW CASTLE MUNI , PA, US) observed 1038 UTC 20 September 2018
Temperature: 13.0°C (55°F)
Dewpoint: 12.0°C (54°F) [RH = 94%]
Pressure (altimeter): 30.12 inches Hg (1020.1 mb)
Winds: calm
Visibility: 1.00 miles (1.61 km)
Ceiling: 300 feet AGL
Clouds: overcast cloud deck at 300 feet AGL
Weather: BR  (mist)

METAR text: KUCP 200956Z AUTO 00000KT 1/2SM FG BKN003 13/13 A3012 RMK AO2 SLP211 T01330128 RVRNO
Conditions at: KUCP (NEW CASTLE MUNI , PA, US) observed 0956 UTC 20 September 2018
Temperature: 13.3°C (56°F)
Dewpoint: 12.8°C (55°F) [RH = 97%]
Pressure (altimeter): 30.12 inches Hg (1020.1 mb)
[Sea-level pressure: 1021.1 mb]
Winds: calm
Visibility: 0.50 miles (0.80 km)
Ceiling: 300 feet AGL
Clouds: broken clouds at 300 feet AGL
Weather: FG  (fog)

METAR text: KUCP 200953Z AUTO 00000KT 1/2SM FG BKN003 13/13 A3012 RMK AO2 RVRNO
Conditions at: KUCP (NEW CASTLE MUNI , PA, US) observed 0953 UTC 20 September 2018
Temperature: 13.0°C (55°F)
Dewpoint: 13.0°C (55°F) [RH = 100%]
Pressure (altimeter): 30.12 inches Hg (1020.1 mb)
Winds: calm
Visibility: 0.50 miles (0.80 km)
Ceiling: 300 feet AGL
Clouds: broken clouds at 300 feet AGL
Weather: FG  (fog)

METAR text: KUCP 200950Z AUTO 00000KT 1SM BR BKN003 13/13 A3012 RMK AO2 VIS 1/4V3 TSNO RVRNO
Conditions at: KUCP (NEW CASTLE MUNI , PA, US) observed 0950 UTC 20 September 2018
Temperature: 13.0°C (55°F)
Dewpoint: 13.0°C (55°F) [RH = 100%]
Pressure (altimeter): 30.12 inches Hg (1020.1 mb)
Winds: calm
Visibility: 1.00 miles (1.61 km)
Ceiling: 300 feet AGL
Clouds: broken clouds at 300 feet AGL
Weather: BR  (mist)

METAR text: KUCP 200947Z AUTO 00000KT 2 1/2SM BR BKN003 13/13 A3012 RMK AO2 VIS 3/4V5
Conditions at: KUCP (NEW CASTLE MUNI , PA, US) observed 0947 UTC 20 September 2018
Temperature: 13.0°C (55°F)
Dewpoint: 13.0°C (55°F) [RH = 100%]
Pressure (altimeter): 30.12 inches Hg (1020.1 mb)
Winds: calm
Visibility: 2.50 miles (4.02 km)
Ceiling: 300 feet AGL
Clouds: broken clouds at 300 feet AGL
Weather: BR  (mist)

METAR text: KUCP 200946Z AUTO 00000KT 3SM BR BKN003 13/13 A3012 RMK AO2
Conditions at: KUCP (NEW CASTLE MUNI , PA, US) observed 0946 UTC 20 September 2018
Temperature: 13.0°C (55°F)
Dewpoint: 13.0°C (55°F) [RH = 100%]
Pressure (altimeter): 30.12 inches Hg (1020.1 mb)
Winds: calm
Visibility: 3 miles ( 5 km)
Ceiling: 300 feet AGL
Clouds: broken clouds at 300 feet AGL
Weather: BR  (mist)

METAR text: KUCP 200933Z AUTO 00000KT 2SM BR SCT001 13/13 A3012 RMK AO2 VIS 1V4
Conditions at: KUCP (NEW CASTLE MUNI , PA, US) observed 0933 UTC 20 September 2018
Temperature: 13.0°C (55°F)
Dewpoint: 13.0°C (55°F) [RH = 100%]
Pressure (altimeter): 30.12 inches Hg (1020.1 mb)
Winds: calm
Visibility: 2.00 miles (3.22 km)
Ceiling: at least 12,000 feet AGL
Clouds: scattered clouds at 100 feet AGL
Weather: BR  (mist)

METAR text: KUCP 200927Z AUTO 00000KT 1 1/4SM BR BKN001 13/13 A3011 RMK AO2 VIS 1/2V3
Conditions at: KUCP (NEW CASTLE MUNI , PA, US) observed 0927 UTC 20 September 2018
Temperature: 13.0°C (55°F)
Dewpoint: 13.0°C (55°F) [RH = 100%]
Pressure (altimeter): 30.11 inches Hg (1019.7 mb)
Winds: calm
Visibility: 1.25 miles (2.01 km)
Ceiling: 100 feet AGL
Clouds: broken clouds at 100 feet AGL
Weather: BR  (mist)

METAR text: KUCP 200910Z AUTO 08003KT 3/4SM BR OVC001 13/13 A3012 RMK AO2 RVRNO
Conditions at: KUCP (NEW CASTLE MUNI , PA, US) observed 0910 UTC 20 September 2018
Temperature: 13.0°C (55°F)
Dewpoint: 13.0°C (55°F) [RH = 100%]
Pressure (altimeter): 30.12 inches Hg (1020.1 mb)
Winds: from the E (80 degrees) at 3 MPH (3 knots; 1.5 m/s)
Visibility: 0.75 miles (1.21 km)
Ceiling: 100 feet AGL
Clouds: overcast cloud deck at 100 feet AGL
Weather: BR  (mist)

METAR text: KUCP 200856Z AUTO 00000KT 1/4SM FG BKN001 14/13 A3011 RMK AO2 SLP207 T01390133 53006 RVRNO
Conditions at: KUCP (NEW CASTLE MUNI , PA, US) observed 0856 UTC 20 September 2018
Temperature: 13.9°C (57°F)
Dewpoint: 13.3°C (56°F) [RH = 96%]
Pressure (altimeter): 30.11 inches Hg (1019.7 mb)
[Sea-level pressure: 1020.7 mb]
Winds: calm
Visibility: 0.25 miles (0.40 km)
Ceiling: 100 feet AGL
Clouds: broken clouds at 100 feet AGL
Weather: FG  (fog)

METAR text: KUCP 200848Z AUTO 00000KT 1/2SM FG BKN001 14/13 A3011 RMK AO2 RVRNO
Conditions at: KUCP (NEW CASTLE MUNI , PA, US) observed 0848 UTC 20 September 2018
Temperature: 14.0°C (57°F)
Dewpoint: 13.0°C (55°F) [RH = 94%]
Pressure (altimeter): 30.11 inches Hg (1019.7 mb)
Winds: calm
Visibility: 0.50 miles (0.80 km)
Ceiling: 100 feet AGL
Clouds: broken clouds at 100 feet AGL
Weather: FG  (fog)

METAR text: KUCP 200845Z AUTO 06003KT 1SM BR VV001 14/13 A3011 RMK AO2 VIS 1/4V5 RVRNO
Conditions at: KUCP (NEW CASTLE MUNI , PA, US) observed 0845 UTC 20 September 2018
Temperature: 14.0°C (57°F)
Dewpoint: 13.0°C (55°F) [RH = 94%]
Pressure (altimeter): 30.11 inches Hg (1019.7 mb)
Winds: from the ENE (60 degrees) at 3 MPH (3 knots; 1.5 m/s)
Visibility: 1.00 miles (1.61 km)
Ceiling: indefinite ceiling with vertical visibility of 100 feet AGL
Clouds: obscured sky
Weather: BR  (mist)

METAR text: KUCP 200822Z AUTO 00000KT 2SM BR SCT002 14/13 A3010 RMK AO2 VIS 1 1/4V5
Conditions at: KUCP (NEW CASTLE MUNI , PA, US) observed 0822 UTC 20 September 2018
Temperature: 14.0°C (57°F)
Dewpoint: 13.0°C (55°F) [RH = 94%]
Pressure (altimeter): 30.10 inches Hg (1019.4 mb)
Winds: calm
Visibility: 2.00 miles (3.22 km)
Ceiling: at least 12,000 feet AGL
Clouds: scattered clouds at 200 feet AGL
Weather: BR  (mist)

METAR text: KUCP 200813Z AUTO 00000KT 1 1/4SM BR BKN002 14/13 A3010 RMK AO2
Conditions at: KUCP (NEW CASTLE MUNI , PA, US) observed 0813 UTC 20 September 2018
Temperature: 14.0°C (57°F)
Dewpoint: 13.0°C (55°F) [RH = 94%]
Pressure (altimeter): 30.10 inches Hg (1019.4 mb)
Winds: calm
Visibility: 1.25 miles (2.01 km)
Ceiling: 200 feet AGL
Clouds: broken clouds at 200 feet AGL
Weather: BR  (mist)

METAR text: KUCP 200808Z AUTO 00000KT 3/4SM BR OVC002 13/13 A3010 RMK AO2 RVRNO
Conditions at: KUCP (NEW CASTLE MUNI , PA, US) observed 0808 UTC 20 September 2018
Temperature: 13.0°C (55°F)
Dewpoint: 13.0°C (55°F) [RH = 100%]
Pressure (altimeter): 30.10 inches Hg (1019.4 mb)
Winds: calm
Visibility: 0.75 miles (1.21 km)
Ceiling: 200 feet AGL
Clouds: overcast cloud deck at 200 feet AGL
Weather: BR  (mist)

METAR text: KUCP 200756Z AUTO 00000KT 1/4SM FG BKN002 13/13 A3009 RMK AO2 SLP201 T01330133 RVRNO
Conditions at: KUCP (NEW CASTLE MUNI , PA, US) observed 0756 UTC 20 September 2018
Temperature: 13.3°C (56°F)
Dewpoint: 13.3°C (56°F) [RH = 100%]
Pressure (altimeter): 30.09 inches Hg (1019.0 mb)
[Sea-level pressure: 1020.1 mb]
Winds: calm
Visibility: 0.25 miles (0.40 km)
Ceiling: 200 feet AGL
Clouds: broken clouds at 200 feet AGL
Weather: FG  (fog)

METAR text: KUCP 200747Z AUTO 00000KT 1/4SM FG BKN002 14/13 A3009 RMK AO2 RVRNO
Conditions at: KUCP (NEW CASTLE MUNI , PA, US) observed 0747 UTC 20 September 2018
Temperature: 14.0°C (57°F)
Dewpoint: 13.0°C (55°F) [RH = 94%]
Pressure (altimeter): 30.09 inches Hg (1019.0 mb)
Winds: calm
Visibility: 0.25 miles (0.40 km)
Ceiling: 200 feet AGL
Clouds: broken clouds at 200 feet AGL
Weather: FG  (fog)

METAR text: KUCP 200743Z AUTO 00000KT 3/4SM BR BKN002 14/13 A3009 RMK AO2 RVRNO
Conditions at: KUCP (NEW CASTLE MUNI , PA, US) observed 0743 UTC 20 September 2018
Temperature: 14.0°C (57°F)
Dewpoint: 13.0°C (55°F) [RH = 94%]
Pressure (altimeter): 30.09 inches Hg (1019.0 mb)
Winds: calm
Visibility: 0.75 miles (1.21 km)
Ceiling: 200 feet AGL
Clouds: broken clouds at 200 feet AGL
Weather: BR  (mist)

METAR text: KUCP 200736Z AUTO 00000KT 1 1/4SM BR BKN002 13/13 A3009 RMK AO2
Conditions at: KUCP (NEW CASTLE MUNI , PA, US) observed 0736 UTC 20 September 2018
Temperature: 13.0°C (55°F)
Dewpoint: 13.0°C (55°F) [RH = 100%]
Pressure (altimeter): 30.09 inches Hg (1019.0 mb)
Winds: calm
Visibility: 1.25 miles (2.01 km)
Ceiling: 200 feet AGL
Clouds: broken clouds at 200 feet AGL
Weather: BR  (mist)

METAR text: KUCP 200733Z AUTO 00000KT 1SM BR SCT002 13/13 A3009 RMK AO2 RVRNO
Conditions at: KUCP (NEW CASTLE MUNI , PA, US) observed 0733 UTC 20 September 2018
Temperature: 13.0°C (55°F)
Dewpoint: 13.0°C (55°F) [RH = 100%]
Pressure (altimeter): 30.09 inches Hg (1019.0 mb)
Winds: calm
Visibility: 1.00 miles (1.61 km)
Ceiling: at least 12,000 feet AGL
Clouds: scattered clouds at 200 feet AGL
Weather: BR  (mist)

METAR text: KUCP 200724Z AUTO 00000KT 3/4SM BR BKN003 14/13 A3008 RMK AO2 RVRNO
Conditions at: KUCP (NEW CASTLE MUNI , PA, US) observed 0724 UTC 20 September 2018
Temperature: 14.0°C (57°F)
Dewpoint: 13.0°C (55°F) [RH = 94%]
Pressure (altimeter): 30.08 inches Hg (1018.7 mb)
Winds: calm
Visibility: 0.75 miles (1.21 km)
Ceiling: 300 feet AGL
Clouds: broken clouds at 300 feet AGL
Weather: BR  (mist)

METAR text: KUCP 200717Z AUTO 00000KT 1/4SM FG OVC003 14/13 A3009 RMK AO2 RVRNO
Conditions at: KUCP (NEW CASTLE MUNI , PA, US) observed 0717 UTC 20 September 2018
Temperature: 14.0°C (57°F)
Dewpoint: 13.0°C (55°F) [RH = 94%]
Pressure (altimeter): 30.09 inches Hg (1019.0 mb)
Winds: calm
Visibility: 0.25 miles (0.40 km)
Ceiling: 300 feet AGL
Clouds: overcast cloud deck at 300 feet AGL
Weather: FG  (fog)

METAR text: KUCP 200706Z AUTO 00000KT 3/4SM BR BKN003 14/13 A3009 RMK AO2 RVRNO
Conditions at: KUCP (NEW CASTLE MUNI , PA, US) observed 0706 UTC 20 September 2018
Temperature: 14.0°C (57°F)
Dewpoint: 13.0°C (55°F) [RH = 94%]
Pressure (altimeter): 30.09 inches Hg (1019.0 mb)
Winds: calm
Visibility: 0.75 miles (1.21 km)
Ceiling: 300 feet AGL
Clouds: broken clouds at 300 feet AGL
Weather: BR  (mist)

METAR text: KUCP 200653Z AUTO 00000KT 1 3/4SM BR BKN003 14/14 A3009 RMK AO2 SLP199 T01390139
Conditions at: KUCP (NEW CASTLE MUNI , PA, US) observed 0653 UTC 20 September 2018
Temperature: 13.9°C (57°F)
Dewpoint: 13.9°C (57°F) [RH = 100%]
Pressure (altimeter): 30.09 inches Hg (1019.0 mb)
[Sea-level pressure: 1019.9 mb]
Winds: calm
Visibility: 1.75 miles (2.82 km)
Ceiling: 300 feet AGL
Clouds: broken clouds at 300 feet AGL
Weather: BR  (mist)

METAR text: KUCP 200652Z AUTO 00000KT 1 3/4SM BR BKN003 14/14 A3009 RMK AO2 VIS 3/4V5
Conditions at: KUCP (NEW CASTLE MUNI , PA, US) observed 0652 UTC 20 September 2018
Temperature: 14.0°C (57°F)
Dewpoint: 14.0°C (57°F) [RH = 100%]
Pressure (altimeter): 30.09 inches Hg (1019.0 mb)
Winds: calm
Visibility: 1.75 miles (2.82 km)
Ceiling: 300 feet AGL
Clouds: broken clouds at 300 feet AGL
Weather: BR  (mist)

METAR text: KUCP 200641Z AUTO 00000KT 3SM BR BKN003 14/13 A3009 RMK AO2
Conditions at: KUCP (NEW CASTLE MUNI , PA, US) observed 0641 UTC 20 September 2018
Temperature: 14.0°C (57°F)
Dewpoint: 13.0°C (55°F) [RH = 94%]
Pressure (altimeter): 30.09 inches Hg (1019.0 mb)
Winds: calm
Visibility: 3 miles ( 5 km)
Ceiling: 300 feet AGL
Clouds: broken clouds at 300 feet AGL
Weather: BR  (mist)

METAR text: KUCP 200639Z AUTO 00000KT 1 1/2SM BR BKN003 14/13 A3009 RMK AO2
Conditions at: KUCP (NEW CASTLE MUNI , PA, US) observed 0639 UTC 20 September 2018
Temperature: 14.0°C (57°F)
Dewpoint: 13.0°C (55°F) [RH = 94%]
Pressure (altimeter): 30.09 inches Hg (1019.0 mb)
Winds: calm
Visibility: 1.50 miles (2.41 km)
Ceiling: 300 feet AGL
Clouds: broken clouds at 300 feet AGL
Weather: BR  (mist)

METAR text: KUCP 200637Z AUTO 00000KT 3/4SM BR BKN003 14/13 A3009 RMK AO2 RVRNO
Conditions at: KUCP (NEW CASTLE MUNI , PA, US) observed 0637 UTC 20 September 2018
Temperature: 14.0°C (57°F)
Dewpoint: 13.0°C (55°F) [RH = 94%]
Pressure (altimeter): 30.09 inches Hg (1019.0 mb)
Winds: calm
Visibility: 0.75 miles (1.21 km)
Ceiling: 300 feet AGL
Clouds: broken clouds at 300 feet AGL
Weather: BR  (mist)

METAR text: KUCP 200631Z AUTO 00000KT 1/4SM FG BKN003 14/14 A3009 RMK AO2 RVRNO
Conditions at: KUCP (NEW CASTLE MUNI , PA, US) observed 0631 UTC 20 September 2018
Temperature: 14.0°C (57°F)
Dewpoint: 14.0°C (57°F) [RH = 100%]
Pressure (altimeter): 30.09 inches Hg (1019.0 mb)
Winds: calm
Visibility: 0.25 miles (0.40 km)
Ceiling: 300 feet AGL
Clouds: broken clouds at 300 feet AGL
Weather: FG  (fog)

METAR text: KUCP 200617Z AUTO 00000KT 1/2SM FG BKN003 14/14 A3009 RMK AO2 VIS 1/4V3 RVRNO
Conditions at: KUCP (NEW CASTLE MUNI , PA, US) observed 0617 UTC 20 September 2018
Temperature: 14.0°C (57°F)
Dewpoint: 14.0°C (57°F) [RH = 100%]
Pressure (altimeter): 30.09 inches Hg (1019.0 mb)
Winds: calm
Visibility: 0.50 miles (0.80 km)
Ceiling: 300 feet AGL
Clouds: broken clouds at 300 feet AGL
Weather: FG  (fog)

METAR text: KUCP 200615Z AUTO 00000KT 1SM BR BKN003 14/14 A3009 RMK AO2 VIS 1/4V3 RVRNO
Conditions at: KUCP (NEW CASTLE MUNI , PA, US) observed 0615 UTC 20 September 2018
Temperature: 14.0°C (57°F)
Dewpoint: 14.0°C (57°F) [RH = 100%]
Pressure (altimeter): 30.09 inches Hg (1019.0 mb)
Winds: calm
Visibility: 1.00 miles (1.61 km)
Ceiling: 300 feet AGL
Clouds: broken clouds at 300 feet AGL
Weather: BR  (mist)

METAR text: KUCP 200611Z AUTO 00000KT 2 1/2SM BR SCT003 14/14 A3009 RMK AO2 VIS 1V5
Conditions at: KUCP (NEW CASTLE MUNI , PA, US) observed 0611 UTC 20 September 2018
Temperature: 14.0°C (57°F)
Dewpoint: 14.0°C (57°F) [RH = 100%]
Pressure (altimeter): 30.09 inches Hg (1019.0 mb)
Winds: calm
Visibility: 2.50 miles (4.02 km)
Ceiling: at least 12,000 feet AGL
Clouds: scattered clouds at 300 feet AGL
Weather: BR  (mist)

METAR text: KUCP 200556Z AUTO 00000KT 5SM BR CLR 14/14 A3010 RMK AO2 SLP202 T01440139 10211 20144 56007
Conditions at: KUCP (NEW CASTLE MUNI , PA, US) observed 0556 UTC 20 September 2018
Temperature: 14.4°C (58°F)
Dewpoint: 13.9°C (57°F) [RH = 97%]
Pressure (altimeter): 30.10 inches Hg (1019.4 mb)
[Sea-level pressure: 1020.2 mb]
Winds: calm
Visibility: 5 miles ( 8 km)
Ceiling: at least 12,000 feet AGL
Clouds: sky clear below 12,000 feet AGL
Weather: BR  (mist)

METAR text: KUCP 200500Z AUTO 00000KT 3SM BR SCT002 15/14 A3010 RMK AO2
Conditions at: KUCP (NEW CASTLE MUNI , PA, US) observed 0500 UTC 20 September 2018
Temperature: 15.0°C (59°F)
Dewpoint: 14.0°C (57°F) [RH = 94%]
Pressure (altimeter): 30.10 inches Hg (1019.4 mb)
Winds: calm
Visibility: 3 miles ( 5 km)
Ceiling: at least 12,000 feet AGL
Clouds: scattered clouds at 200 feet AGL
Weather: BR  (mist)

METAR text: KUCP 200458Z AUTO 00000KT 1 1/2SM BR SCT002 16/14 A3010 RMK AO2
Conditions at: KUCP (NEW CASTLE MUNI , PA, US) observed 0458 UTC 20 September 2018
Temperature: 16.0°C (61°F)
Dewpoint: 14.0°C (57°F) [RH = 88%]
Pressure (altimeter): 30.10 inches Hg (1019.4 mb)
Winds: calm
Visibility: 1.50 miles (2.41 km)
Ceiling: at least 12,000 feet AGL
Clouds: scattered clouds at 200 feet AGL
Weather: BR  (mist)

METAR text: KUCP 200456Z AUTO 00000KT 3/4SM BR BKN002 16/15 A3010 RMK AO2 SLP202 T01560150 402560150 RVRNO
Conditions at: KUCP (NEW CASTLE MUNI , PA, US) observed 0456 UTC 20 September 2018
Temperature: 15.6°C (60°F)
Dewpoint: 15.0°C (59°F) [RH = 96%]
Pressure (altimeter): 30.10 inches Hg (1019.4 mb)
[Sea-level pressure: 1020.2 mb]
Winds: calm
Visibility: 0.75 miles (1.21 km)
Ceiling: 200 feet AGL
Clouds: broken clouds at 200 feet AGL
Weather: BR  (mist)

METAR text: KUCP 200444Z AUTO 00000KT 1/2SM FG VV002 16/15 A3011 RMK AO2 TSNO RVRNO
Conditions at: KUCP (NEW CASTLE MUNI , PA, US) observed 0444 UTC 20 September 2018
Temperature: 16.0°C (61°F)
Dewpoint: 15.0°C (59°F) [RH = 94%]
Pressure (altimeter): 30.11 inches Hg (1019.7 mb)
Winds: calm
Visibility: 0.50 miles (0.80 km)
Ceiling: indefinite ceiling with vertical visibility of 200 feet AGL
Clouds: obscured sky
Weather: FG  (fog)

METAR text: KUCP 200442Z AUTO 00000KT 1SM BR VV001 16/15 A3011 RMK AO2 TSNO RVRNO
Conditions at: KUCP (NEW CASTLE MUNI , PA, US) observed 0442 UTC 20 September 2018
Temperature: 16.0°C (61°F)
Dewpoint: 15.0°C (59°F) [RH = 94%]
Pressure (altimeter): 30.11 inches Hg (1019.7 mb)
Winds: calm
Visibility: 1.00 miles (1.61 km)
Ceiling: indefinite ceiling with vertical visibility of 100 feet AGL
Clouds: obscured sky
Weather: BR  (mist)

METAR text: KUCP 200440Z AUTO 00000KT 2 1/2SM BR SCT002 16/15 A3012 RMK AO2
Conditions at: KUCP (NEW CASTLE MUNI , PA, US) observed 0440 UTC 20 September 2018
Temperature: 16.0°C (61°F)
Dewpoint: 15.0°C (59°F) [RH = 94%]
Pressure (altimeter): 30.12 inches Hg (1020.1 mb)
Winds: calm
Visibility: 2.50 miles (4.02 km)
Ceiling: at least 12,000 feet AGL
Clouds: scattered clouds at 200 feet AGL
Weather: BR  (mist)

METAR text: KUCP 200356Z AUTO 00000KT 8SM CLR 16/15 A3011 RMK AO2 SLP207 T01560150
Conditions at: KUCP (NEW CASTLE MUNI , PA, US) observed 0356 UTC 20 September 2018
Temperature: 15.6°C (60°F)
Dewpoint: 15.0°C (59°F) [RH = 96%]
Pressure (altimeter): 30.11 inches Hg (1019.7 mb)
[Sea-level pressure: 1020.7 mb]
Winds: calm
Visibility: 8 miles (13 km)
Ceiling: at least 12,000 feet AGL
Clouds: sky clear below 12,000 feet AGL
Weather: automated observation with no human augmentation;
there may or may not be significant weather present at this time